Time;durP1;ratioP1;P1;durP2;ratioP2;P2;SDS_P1;SDS_P2;PMS_P1;PMS_P2;Temp;Humidity;BMP_temperature;BMP_pressure;BME280_temperature;BME280_humidity;BME280_pressure;Samples;Min_cycle;Max_cycle;Signal;HPM_P1;HPM_P2
2021/08/02 00:00:17;;;;;;;5.33;3.10;;;14.70;98.30;;;;;;5116152;23;20501;-83
2021/08/02 00:02:29;;;;;;;5.60;3.30;;;14.70;98.30;;;;;;5115941;23;20468;-84
2021/08/02 00:04:45;;;;;;;3.50;3.20;;;14.70;98.30;;;;;;5117810;23;20777;-83
2021/08/02 00:06:50;;;;;;;5.50;3.40;;;14.70;98.30;;;;;;5125292;23;20450;-83
2021/08/02 00:09:01;;;;;;;5.13;3.80;;;14.80;98.30;;;;;;5125036;23;20446;-83
2021/08/02 00:11:05;;;;;;;10.17;3.23;;;14.70;98.30;;;;;;5117018;23;20416;-83
2021/08/02 00:13:10;;;;;;;7.07;3.10;;;14.80;98.30;;;;;;5125731;23;20433;-83
2021/08/02 00:15:15;;;;;;;4.27;2.60;;;14.70;98.30;;;;;;5117827;23;20425;-83
2021/08/02 00:17:18;;;;;;;6.63;3.20;;;14.80;98.30;;;;;;5126446;23;20513;-82
2021/08/02 00:19:21;;;;;;;5.70;3.33;;;14.80;98.30;;;;;;5124762;23;20532;-83
2021/08/02 00:21:26;;;;;;;6.00;3.23;;;14.80;98.30;;;;;;5125204;23;20497;-83
2021/08/02 00:23:29;;;;;;;4.63;3.57;;;14.80;98.30;;;;;;5117219;23;20500;-83
2021/08/02 00:25:33;;;;;;;4.50;3.13;;;14.80;98.30;;;;;;5126056;23;20445;-83
2021/08/02 00:27:36;;;;;;;5.00;2.80;;;14.70;98.30;;;;;;5117375;23;20890;-83
2021/08/02 00:29:40;;;;;;;7.80;3.50;;;14.70;98.30;;;;;;5116749;23;20452;-84
2021/08/02 00:31:44;;;;;;;4.80;2.93;;;14.70;98.30;;;;;;5116076;23;20513;-83
2021/08/02 00:33:47;;;;;;;5.70;3.40;;;14.70;98.30;;;;;;5118644;23;20505;-83
2021/08/02 00:35:57;;;;;;;6.63;3.10;;;14.70;98.30;;;;;;5118394;23;20429;-83
2021/08/02 00:38:08;;;;;;;5.23;2.97;;;14.70;98.30;;;;;;5125913;23;20416;-83
2021/08/02 00:41:09;;;;;;;5.00;3.00;;;14.70;98.30;;;;;;5124791;23;20421;-83
2021/08/02 00:43:31;;;;;;;5.07;3.10;;;14.70;98.30;;;;;;5086070;23;20428;-83
2021/08/02 00:45:37;;;;;;;5.50;3.10;;;14.70;98.30;;;;;;5127151;23;20899;-82
2021/08/02 00:47:46;;;;;;;13.77;3.33;;;14.70;98.30;;;;;;5125960;23;20409;-84
2021/08/02 00:49:55;;;;;;;5.93;3.87;;;14.60;98.30;;;;;;5124224;23;20449;-83
2021/08/02 00:51:59;;;;;;;7.73;3.97;;;14.70;98.30;;;;;;5127161;23;20729;-83
2021/08/02 00:54:04;;;;;;;4.73;2.93;;;14.70;98.30;;;;;;5128355;23;20428;-83
2021/08/02 00:56:07;;;;;;;5.23;3.13;;;14.70;98.30;;;;;;5128176;23;20436;-84
2021/08/02 00:58:11;;;;;;;6.20;2.83;;;14.70;98.30;;;;;;5119342;23;20465;-83
2021/08/02 01:00:17;;;;;;;7.10;3.10;;;14.70;98.30;;;;;;5119018;23;20430;-83
2021/08/02 01:02:21;;;;;;;6.20;2.70;;;14.70;98.30;;;;;;5126543;23;20734;-83
2021/08/02 01:04:25;;;;;;;13.77;3.40;;;14.70;98.30;;;;;;5119531;23;20509;-83
2021/08/02 01:06:30;;;;;;;5.20;3.00;;;14.70;98.30;;;;;;5127876;23;20436;-83
2021/08/02 01:08:36;;;;;;;3.63;3.00;;;14.70;98.30;;;;;;5119877;23;20454;-83
2021/08/02 01:10:45;;;;;;;6.27;3.47;;;14.70;98.30;;;;;;5118678;23;20879;-83
2021/08/02 01:12:52;;;;;;;6.23;4.00;;;14.70;98.30;;;;;;5125914;23;20465;-83
2021/08/02 01:14:56;;;;;;;7.20;3.30;;;14.70;98.30;;;;;;5125891;23;20426;-83
2021/08/02 01:16:59;;;;;;;5.93;3.50;;;14.70;98.30;;;;;;5126103;23;20545;-84
2021/08/02 01:19:08;;;;;;;7.77;3.20;;;14.70;98.30;;;;;;5117319;23;20525;-83
2021/08/02 01:21:15;;;;;;;7.43;3.30;;;14.70;98.30;;;;;;5126237;23;20883;-84
2021/08/02 01:23:21;;;;;;;10.43;3.30;;;14.70;98.30;;;;;;5126433;23;20413;-84
2021/08/02 01:26:09;;;;;;;4.93;3.20;;;14.80;98.30;;;;;;5126737;23;20440;-83
2021/08/02 01:28:49;;;;;;;4.53;3.20;;;14.70;98.30;;;;;;5126600;23;20440;-84
2021/08/02 01:30:54;;;;;;;6.33;3.60;;;14.70;98.30;;;;;;5126452;23;20501;-83
2021/08/02 01:32:56;;;;;;;4.17;2.73;;;14.70;98.30;;;;;;5118955;23;20430;-83
2021/08/02 01:34:59;;;;;;;6.87;2.93;;;14.70;98.30;;;;;;5118909;23;20468;-83
2021/08/02 01:37:03;;;;;;;4.07;2.97;;;14.70;98.30;;;;;;5119669;23;20449;-83
2021/08/02 01:39:07;;;;;;;7.37;4.10;;;14.60;98.30;;;;;;5119354;23;20568;-83
2021/08/02 01:41:10;;;;;;;5.63;3.20;;;14.60;98.30;;;;;;5118515;23;20513;-83
2021/08/02 01:43:13;;;;;;;5.23;2.70;;;14.60;98.30;;;;;;5127065;23;20426;-83
2021/08/02 01:45:16;;;;;;;5.53;2.80;;;14.60;98.30;;;;;;5118926;23;20512;-83
2021/08/02 01:47:44;;;;;;;7.33;3.00;;;14.60;98.30;;;;;;5118518;23;20950;-83
2021/08/02 01:49:54;;;;;;;5.20;2.60;;;14.60;98.30;;;;;;5117688;23;20540;-83
2021/08/02 01:51:58;;;;;;;5.17;2.77;;;14.60;98.30;;;;;;5118005;23;20452;-83
2021/08/02 01:54:09;;;;;;;5.37;3.40;;;14.60;98.30;;;;;;5118532;23;20430;-83
2021/08/02 01:56:18;;;;;;;6.97;3.70;;;14.60;98.30;;;;;;5118748;23;20437;-83
2021/08/02 01:58:21;;;;;;;4.63;3.30;;;14.60;98.30;;;;;;5126718;23;20459;-83
2021/08/02 02:00:25;;;;;;;3.67;3.10;;;14.60;98.30;;;;;;5117504;23;20751;-84
2021/08/02 02:02:33;;;;;;;3.67;3.17;;;14.60;98.30;;;;;;5117392;23;20508;-83
2021/08/02 02:04:41;;;;;;;4.00;2.90;;;14.70;98.30;;;;;;5118181;23;20877;-83
2021/08/02 02:06:48;;;;;;;3.63;2.80;;;14.70;98.30;;;;;;5126650;23;20467;-83
2021/08/02 02:08:59;;;;;;;5.73;3.27;;;14.60;98.30;;;;;;5117645;23;20529;-83
2021/08/02 02:11:03;;;;;;;5.10;3.27;;;14.60;98.30;;;;;;5116528;23;20417;-82
2021/08/02 02:13:10;;;;;;;3.30;2.53;;;14.60;98.30;;;;;;5126549;23;20501;-82
2021/08/02 02:15:14;;;;;;;4.10;2.90;;;14.60;98.30;;;;;;5118812;23;20520;-82
2021/08/02 02:17:18;;;;;;;5.13;3.13;;;14.60;98.30;;;;;;5118961;23;20458;-82
2021/08/02 02:19:22;;;;;;;3.87;3.47;;;14.60;98.30;;;;;;5126637;23;20942;-82
2021/08/02 02:21:28;;;;;;;7.13;3.50;;;14.60;98.30;;;;;;5118887;23;20436;-82
2021/08/02 02:23:31;;;;;;;7.67;3.50;;;14.60;98.30;;;;;;5127840;23;20410;-82
2021/08/02 02:25:35;;;;;;;6.07;2.93;;;14.60;98.30;;;;;;5127389;23;20426;-83
2021/08/02 02:27:44;;;;;;;8.43;3.00;;;14.60;98.30;;;;;;5119000;23;20414;-83
2021/08/02 02:29:48;;;;;;;8.10;3.27;;;14.60;98.30;;;;;;5116284;23;20534;-83
2021/08/02 02:31:51;;;;;;;3.73;3.13;;;14.60;98.30;;;;;;5115999;23;21131;-83
2021/08/02 02:33:58;;;;;;;5.83;3.20;;;14.60;98.30;;;;;;5117430;23;20488;-83
2021/08/02 02:36:03;;;;;;;4.03;2.57;;;14.60;98.30;;;;;;5127000;23;20456;-83
2021/08/02 02:38:06;;;;;;;5.50;3.50;;;14.60;98.30;;;;;;5128454;23;20485;-83
2021/08/02 02:40:10;;;;;;;6.60;3.30;;;14.60;98.30;;;;;;5127353;23;20444;-83
2021/08/02 02:42:13;;;;;;;3.90;3.20;;;14.60;98.30;;;;;;5118330;23;20437;-82
2021/08/02 02:44:18;;;;;;;6.40;3.43;;;14.60;98.30;;;;;;5119299;23;20513;-83
2021/08/02 02:46:22;;;;;;;5.10;3.03;;;14.60;98.30;;;;;;5119287;23;20426;-83
2021/08/02 02:48:26;;;;;;;6.23;2.80;;;14.60;98.30;;;;;;5126975;23;20434;-84
2021/08/02 02:50:30;;;;;;;9.83;3.00;;;14.60;98.30;;;;;;5118969;23;20430;-83
2021/08/02 02:52:34;;;;;;;6.50;3.27;;;14.60;98.30;;;;;;5119177;23;20437;-83
2021/08/02 02:54:39;;;;;;;3.90;2.80;;;14.60;98.30;;;;;;5127695;23;20521;-83
2021/08/02 02:56:42;;;;;;;4.23;3.10;;;14.60;98.30;;;;;;5118978;23;20517;-83
2021/08/02 02:58:45;;;;;;;6.27;3.33;;;14.60;98.30;;;;;;5126201;23;21154;-83
2021/08/02 03:00:51;;;;;;;6.20;3.40;;;14.60;98.30;;;;;;5116772;23;20456;-83
2021/08/02 03:02:57;;;;;;;8.17;2.80;;;14.50;98.30;;;;;;5119790;23;20415;-84
2021/08/02 03:05:01;;;;;;;6.90;3.00;;;14.50;98.30;;;;;;5118253;23;20414;-83
2021/08/02 03:07:07;;;;;;;4.40;3.17;;;14.50;98.30;;;;;;5126941;23;20424;-83
2021/08/02 03:09:14;;;;;;;6.23;4.07;;;14.50;98.30;;;;;;5116611;23;20524;-83
2021/08/02 03:11:20;;;;;;;4.00;2.67;;;14.50;98.30;;;;;;5124920;23;20441;-83
2021/08/02 03:13:23;;;;;;;3.47;2.97;;;14.50;98.30;;;;;;5118902;23;20438;-82
2021/08/02 03:15:26;;;;;;;5.03;3.13;;;14.40;98.30;;;;;;5127874;23;20513;-83
2021/08/02 03:17:31;;;;;;;5.27;3.23;;;14.50;98.30;;;;;;5118825;23;20439;-83
2021/08/02 03:19:34;;;;;;;5.90;3.60;;;14.40;98.30;;;;;;5119504;23;20482;-83
2021/08/02 03:21:37;;;;;;;5.80;3.43;;;14.40;98.30;;;;;;5121452;23;20434;-83
2021/08/02 03:23:47;;;;;;;4.43;2.90;;;14.40;98.30;;;;;;5119523;23;20429;-83
2021/08/02 03:25:59;;;;;;;5.47;3.30;;;14.50;98.30;;;;;;5125940;23;20449;-83
2021/08/02 03:28:09;;;;;;;4.47;2.90;;;14.40;98.30;;;;;;5125239;23;20413;-84
2021/08/02 03:30:14;;;;;;;7.33;3.33;;;14.40;98.30;;;;;;5124392;23;20412;-84
2021/08/02 03:32:19;;;;;;;6.73;3.53;;;14.40;98.30;;;;;;5125661;23;20426;-83
2021/08/02 03:34:26;;;;;;;7.90;3.30;;;14.30;98.30;;;;;;5126123;23;20429;-83
2021/08/02 03:36:30;;;;;;;5.30;3.10;;;14.30;98.30;;;;;;5125174;23;20429;-83
2021/08/02 03:38:35;;;;;;;6.17;3.90;;;14.30;98.30;;;;;;5125518;23;20450;-84
2021/08/02 03:40:39;;;;;;;6.20;3.33;;;14.30;98.30;;;;;;5116137;23;20433;-83
2021/08/02 03:42:44;;;;;;;5.47;3.50;;;14.30;98.30;;;;;;5124000;23;20422;-83
2021/08/02 03:44:49;;;;;;;5.20;3.47;;;14.30;98.30;;;;;;5124937;23;20436;-83
2021/08/02 03:46:53;;;;;;;6.67;4.20;;;14.30;98.30;;;;;;5116766;23;20429;-84
2021/08/02 03:48:57;;;;;;;4.40;3.50;;;14.30;98.30;;;;;;5116655;23;20934;-83
2021/08/02 03:51:01;;;;;;;7.47;3.20;;;14.40;98.30;;;;;;5124915;23;20422;-83
2021/08/02 03:53:05;;;;;;;7.67;3.60;;;14.40;98.30;;;;;;5125318;23;20529;-84
2021/08/02 03:55:10;;;;;;;4.73;3.47;;;14.30;98.30;;;;;;5123935;23;20562;-84
2021/08/02 03:57:13;;;;;;;4.90;3.47;;;14.30;98.30;;;;;;5124938;23;20425;-83
2021/08/02 03:59:16;;;;;;;6.23;3.57;;;14.30;98.30;;;;;;5123890;23;20459;-84
2021/08/02 04:01:19;;;;;;;9.33;4.40;;;14.30;98.30;;;;;;5125355;23;20787;-84
2021/08/02 04:03:23;;;;;;;6.00;3.40;;;14.30;98.30;;;;;;5117874;23;20441;-83
2021/08/02 04:05:27;;;;;;;6.90;3.37;;;14.40;98.30;;;;;;5118508;23;20433;-83
2021/08/02 04:07:32;;;;;;;6.00;4.77;;;14.40;98.30;;;;;;5118098;23;20522;-83
2021/08/02 04:09:36;;;;;;;4.67;3.10;;;14.40;98.30;;;;;;5125786;23;20529;-83
2021/08/02 04:11:40;;;;;;;5.03;3.23;;;14.40;98.30;;;;;;5117071;23;20438;-83
2021/08/02 04:13:44;;;;;;;3.33;3.03;;;14.40;98.30;;;;;;5118248;23;20484;-83
2021/08/02 04:15:47;;;;;;;5.40;3.13;;;14.40;98.30;;;;;;5125744;23;20430;-83
2021/08/02 04:17:50;;;;;;;6.17;4.07;;;14.40;98.30;;;;;;5117864;23;20465;-84
2021/08/02 04:19:53;;;;;;;5.10;3.00;;;14.40;98.30;;;;;;5124206;23;20446;-84
2021/08/02 04:21:58;;;;;;;3.43;2.87;;;14.40;98.30;;;;;;5123279;23;20426;-83
2021/08/02 04:24:03;;;;;;;5.20;3.83;;;14.40;98.30;;;;;;5125504;23;20509;-83
2021/08/02 04:26:08;;;;;;;5.73;2.90;;;14.50;98.30;;;;;;5125444;23;20441;-84
2021/08/02 04:28:11;;;;;;;8.07;3.40;;;14.50;98.30;;;;;;5124838;23;20437;-84
2021/08/02 04:30:14;;;;;;;3.80;3.50;;;14.60;98.30;;;;;;5124717;23;20756;-84
2021/08/02 04:32:17;;;;;;;6.73;3.33;;;14.50;98.30;;;;;;5116465;23;20737;-85
2021/08/02 04:34:20;;;;;;;5.00;3.27;;;14.50;98.30;;;;;;5124919;23;20923;-83
2021/08/02 04:36:24;;;;;;;6.73;3.03;;;14.50;98.30;;;;;;5124395;23;20450;-83
2021/08/02 04:38:27;;;;;;;7.00;3.23;;;14.50;98.30;;;;;;5124869;23;20456;-83
2021/08/02 04:40:31;;;;;;;3.67;2.90;;;14.60;98.30;;;;;;5123859;23;20736;-83
2021/08/02 04:42:35;;;;;;;4.67;2.83;;;14.60;98.30;;;;;;5116209;23;20448;-83
2021/08/02 04:44:38;;;;;;;6.10;3.37;;;14.60;98.30;;;;;;5118415;23;20501;-83
2021/08/02 04:46:41;;;;;;;3.50;2.90;;;14.50;98.30;;;;;;5127462;23;20422;-83
2021/08/02 04:48:44;;;;;;;5.20;3.30;;;14.50;98.30;;;;;;5118221;23;20452;-83
2021/08/02 04:50:48;;;;;;;5.33;3.23;;;14.50;98.30;;;;;;5116411;23;20434;-84
2021/08/02 04:52:51;;;;;;;5.30;3.33;;;14.50;98.30;;;;;;5125547;23;20418;-83
2021/08/02 04:54:54;;;;;;;5.60;3.00;;;14.50;98.30;;;;;;5126083;23;20432;-83
2021/08/02 04:56:58;;;;;;;5.10;2.90;;;14.50;98.30;;;;;;5119430;23;20506;-83
2021/08/02 04:59:01;;;;;;;5.33;3.10;;;14.50;98.30;;;;;;5128564;23;20794;-83
2021/08/02 05:01:04;;;;;;;7.13;2.80;;;14.60;98.30;;;;;;5126006;23;20513;-83
2021/08/02 05:03:07;;;;;;;5.10;3.60;;;14.60;98.30;;;;;;5124712;23;20440;-83
2021/08/02 05:05:11;;;;;;;4.93;3.00;;;14.60;98.30;;;;;;5117564;23;20731;-83
2021/08/02 05:07:14;;;;;;;8.50;3.50;;;14.60;98.30;;;;;;5116523;23;20434;-83
2021/08/02 05:09:17;;;;;;;3.20;2.77;;;14.60;98.30;;;;;;5117126;23;20784;-84
2021/08/02 05:11:20;;;;;;;7.80;3.20;;;14.60;98.30;;;;;;5125006;23;20512;-83
2021/08/02 05:13:24;;;;;;;5.63;3.13;;;14.60;98.30;;;;;;5117853;23;20434;-83
2021/08/02 05:15:28;;;;;;;5.37;3.03;;;14.60;98.30;;;;;;5125033;23;20429;-83
2021/08/02 05:17:31;;;;;;;6.50;3.00;;;14.70;98.30;;;;;;5124814;23;21150;-83
2021/08/02 05:19:35;;;;;;;6.27;3.00;;;14.70;98.30;;;;;;5116257;23;20449;-83
2021/08/02 05:21:38;;;;;;;4.80;3.30;;;14.70;98.30;;;;;;5124652;23;20521;-83
2021/08/02 05:23:41;;;;;;;5.47;3.27;;;14.70;98.30;;;;;;5124053;23;20425;-85
2021/08/02 05:25:44;;;;;;;4.50;3.80;;;14.70;98.30;;;;;;5123965;23;20436;-84
2021/08/02 05:27:51;;;;;;;5.47;4.20;;;14.80;98.30;;;;;;5124308;23;20940;-84
2021/08/02 05:29:55;;;;;;;7.50;3.30;;;14.80;98.30;;;;;;5114820;23;20500;-84
2021/08/02 05:31:58;;;;;;;4.97;3.00;;;14.90;98.30;;;;;;5124199;23;20460;-83
2021/08/02 05:34:01;;;;;;;5.70;3.00;;;14.90;98.30;;;;;;5124364;23;20418;-83
2021/08/02 05:36:04;;;;;;;4.03;3.50;;;14.90;98.30;;;;;;5124942;23;20430;-81
2021/08/02 05:38:08;;;;;;;3.23;2.93;;;14.90;98.30;;;;;;5118797;23;20433;-83
2021/08/02 05:40:12;;;;;;;5.20;3.53;;;14.90;98.30;;;;;;5125834;23;20977;-82
2021/08/02 05:42:15;;;;;;;5.27;3.47;;;15.00;98.30;;;;;;5117286;23;20509;-82
2021/08/02 05:44:18;;;;;;;6.70;3.20;;;15.00;98.30;;;;;;5127090;23;20463;-82
2021/08/02 05:46:22;;;;;;;6.00;5.50;;;15.00;98.30;;;;;;5118854;23;20461;-82
2021/08/02 05:48:25;;;;;;;5.80;3.00;;;15.10;98.30;;;;;;5118495;23;20473;-82
2021/08/02 05:50:28;;;;;;;6.03;3.10;;;15.20;98.30;;;;;;5117943;23;20482;-83
2021/08/02 05:52:31;;;;;;;3.20;2.83;;;15.10;98.30;;;;;;5117080;23;20426;-82
2021/08/02 05:54:34;;;;;;;5.60;2.93;;;15.20;98.30;;;;;;5125978;23;20513;-82
2021/08/02 05:56:40;;;;;;;4.40;2.80;;;15.20;98.30;;;;;;5118471;23;20430;-82
2021/08/02 05:58:45;;;;;;;4.37;3.03;;;15.20;98.30;;;;;;5118109;23;20461;-83
2021/08/02 06:00:48;;;;;;;4.17;3.50;;;15.20;98.30;;;;;;5117512;23;20460;-82
2021/08/02 06:02:53;;;;;;;4.13;2.90;;;15.20;98.30;;;;;;5126418;23;20755;-82
2021/08/02 06:04:56;;;;;;;3.70;3.10;;;15.20;98.30;;;;;;5124469;23;20413;-82
2021/08/02 06:06:59;;;;;;;6.33;3.00;;;15.30;98.30;;;;;;5116543;23;20491;-82
2021/08/02 06:09:02;;;;;;;4.37;3.13;;;15.30;98.30;;;;;;5128962;23;20445;-82
2021/08/02 06:11:04;;;;;;;4.97;3.40;;;15.40;98.30;;;;;;5115982;23;20790;-82
2021/08/02 06:13:08;;;;;;;5.87;3.10;;;15.50;98.30;;;;;;5125059;23;20429;-82
2021/08/02 06:15:12;;;;;;;6.53;3.00;;;15.40;98.30;;;;;;5116703;23;20500;-82
2021/08/02 06:17:15;;;;;;;8.63;3.17;;;15.50;98.30;;;;;;5117252;23;20453;-82
2021/08/02 06:19:19;;;;;;;8.70;5.43;;;15.60;98.30;;;;;;5125194;23;20776;-82
2021/08/02 06:21:22;;;;;;;6.47;3.10;;;15.60;98.30;;;;;;5124360;23;20899;-82
2021/08/02 06:23:25;;;;;;;5.53;3.00;;;15.70;98.30;;;;;;5116646;23;20505;-82
2021/08/02 06:25:28;;;;;;;4.83;2.90;;;15.70;98.30;;;;;;5116923;23;20513;-82
2021/08/02 06:27:31;;;;;;;4.30;3.07;;;15.80;98.30;;;;;;5116975;23;20513;-83
2021/08/02 06:29:34;;;;;;;7.67;2.93;;;15.90;98.30;;;;;;5116984;23;20532;-82
2021/08/02 06:31:37;;;;;;;6.77;3.23;;;16.00;98.30;;;;;;5117043;23;20517;-82
2021/08/02 06:33:40;;;;;;;4.20;3.00;;;16.10;98.30;;;;;;5125570;23;20446;-83
2021/08/02 06:35:44;;;;;;;4.53;3.00;;;15.90;98.30;;;;;;5125259;23;20430;-82
2021/08/02 06:37:47;;;;;;;7.60;2.77;;;15.90;98.30;;;;;;5125173;23;20422;-82
2021/08/02 06:39:50;;;;;;;3.93;2.90;;;16.00;98.30;;;;;;5117003;23;20452;-83
2021/08/02 06:41:53;;;;;;;8.13;3.73;;;16.00;98.30;;;;;;5116287;23;20430;-82
2021/08/02 06:43:56;;;;;;;4.23;2.70;;;15.90;98.30;;;;;;5124901;23;20425;-83
2021/08/02 06:45:59;;;;;;;6.40;2.90;;;15.90;98.30;;;;;;5116871;23;20525;-83
2021/08/02 06:48:02;;;;;;;4.83;2.73;;;15.90;98.30;;;;;;5116754;23;20462;-82
2021/08/02 06:50:07;;;;;;;3.30;2.87;;;16.00;98.30;;;;;;5116048;23;20508;-82
2021/08/02 06:52:11;;;;;;;7.10;2.87;;;16.00;98.30;;;;;;5115661;23;20517;-82
2021/08/02 06:54:14;;;;;;;3.97;3.27;;;16.00;98.30;;;;;;5115944;23;20513;-82
2021/08/02 06:56:17;;;;;;;6.87;2.83;;;16.10;98.30;;;;;;5124154;23;20436;-82
2021/08/02 06:58:20;;;;;;;4.43;2.90;;;16.20;98.30;;;;;;5116855;23;20446;-82
2021/08/02 07:00:23;;;;;;;3.73;2.90;;;16.10;98.30;;;;;;5124651;23;20516;-82
2021/08/02 07:02:26;;;;;;;4.10;2.70;;;16.00;98.30;;;;;;5117057;23;20426;-83
2021/08/02 07:04:29;;;;;;;6.37;3.30;;;16.00;98.30;;;;;;5125170;23;20430;-82
2021/08/02 07:06:32;;;;;;;8.87;2.87;;;16.10;98.30;;;;;;5118517;23;20425;-83
2021/08/02 07:08:39;;;;;;;4.60;2.97;;;16.10;98.30;;;;;;5123046;23;20460;-83
2021/08/02 07:10:42;;;;;;;7.70;3.20;;;15.80;98.30;;;;;;5116414;23;20417;-82
2021/08/02 07:12:45;;;;;;;6.53;3.20;;;15.50;98.30;;;;;;5116303;23;20516;-82
2021/08/02 07:14:48;;;;;;;4.80;3.40;;;15.40;98.30;;;;;;5125131;23;20425;-83
2021/08/02 07:16:51;;;;;;;5.73;3.90;;;15.30;98.30;;;;;;5116511;23;20486;-83
2021/08/02 07:18:54;;;;;;;3.80;3.23;;;15.40;98.30;;;;;;5116618;23;20453;-83
2021/08/02 07:20:57;;;;;;;5.50;3.97;;;15.50;98.30;;;;;;5115343;23;20529;-82
2021/08/02 07:23:00;;;;;;;7.23;4.57;;;15.50;98.30;;;;;;5116251;23;20429;-83
2021/08/02 07:25:05;;;;;;;3.70;3.00;;;15.50;98.30;;;;;;5115767;23;20434;-83
2021/08/02 07:27:08;;;;;;;3.73;2.90;;;15.30;98.30;;;;;;5116449;23;20411;-83
2021/08/02 07:29:11;;;;;;;5.97;3.97;;;15.20;98.30;;;;;;5124158;23;20445;-83
2021/08/02 07:31:15;;;;;;;7.17;4.20;;;15.30;98.30;;;;;;5116181;23;20835;-82
2021/08/02 07:33:18;;;;;;;5.30;3.07;;;15.40;98.30;;;;;;5116749;23;20977;-82
2021/08/02 07:35:21;;;;;;;5.00;3.00;;;15.50;98.30;;;;;;5116232;23;20501;-83
2021/08/02 07:37:24;;;;;;;4.13;2.97;;;15.60;98.30;;;;;;5115821;23;20430;-83
2021/08/02 07:39:28;;;;;;;9.03;3.33;;;15.60;98.30;;;;;;5116034;23;20485;-82
2021/08/02 07:41:32;;;;;;;4.00;3.10;;;15.60;98.30;;;;;;5115062;23;20533;-83
2021/08/02 07:43:35;;;;;;;6.20;3.40;;;15.50;98.30;;;;;;5115904;23;20950;-83
2021/08/02 07:45:39;;;;;;;4.43;3.07;;;15.60;98.30;;;;;;5116118;23;20453;-82
2021/08/02 07:47:42;;;;;;;8.60;3.13;;;15.60;98.30;;;;;;5116477;23;20947;-83
2021/08/02 07:49:44;;;;;;;5.13;3.50;;;15.70;98.30;;;;;;5115865;23;20450;-83
2021/08/02 07:51:47;;;;;;;6.43;3.70;;;15.90;98.30;;;;;;5115854;23;20425;-83
2021/08/02 07:53:50;;;;;;;3.57;3.23;;;16.00;98.30;;;;;;5124801;23;20446;-83
2021/08/02 07:55:53;;;;;;;4.23;3.20;;;15.90;98.30;;;;;;5115989;23;20835;-83
2021/08/02 07:57:57;;;;;;;7.53;3.50;;;15.80;98.30;;;;;;5124709;23;20426;-83
2021/08/02 08:00:02;;;;;;;5.63;3.20;;;15.80;98.30;;;;;;5124291;23;20517;-83
2021/08/02 08:02:05;;;;;;;5.50;3.60;;;15.90;98.30;;;;;;5123295;23;20524;-83
2021/08/02 08:04:08;;;;;;;6.00;3.30;;;16.00;98.30;;;;;;5116012;23;20433;-83
2021/08/02 08:06:11;;;;;;;4.03;2.90;;;16.00;98.30;;;;;;5115874;23;20436;-83
2021/08/02 08:08:14;;;;;;;4.00;3.37;;;16.00;98.30;;;;;;5116020;23;20454;-82
2021/08/02 08:10:21;;;;;;;4.83;3.43;;;16.20;98.30;;;;;;5124092;23;20417;-82
2021/08/02 08:12:24;;;;;;;4.50;2.60;;;16.40;98.30;;;;;;5120433;23;20490;-82
2021/08/02 08:14:28;;;;;;;6.70;3.20;;;16.40;98.30;;;;;;5116675;23;20466;-82
2021/08/02 08:16:33;;;;;;;3.00;2.43;;;16.50;98.30;;;;;;5115675;23;20884;-82
2021/08/02 08:18:37;;;;;;;4.17;2.90;;;16.50;98.30;;;;;;5116175;23;20477;-82
2021/08/02 08:20:40;;;;;;;6.43;3.10;;;16.70;98.30;;;;;;5123854;23;20422;-82
2021/08/02 08:22:43;;;;;;;4.50;2.90;;;16.70;98.30;;;;;;5115481;23;20434;-83
2021/08/02 08:24:49;;;;;;;3.60;3.23;;;16.70;98.30;;;;;;5115574;23;20452;-83
2021/08/02 08:26:52;;;;;;;3.70;2.83;;;16.70;98.30;;;;;;5116044;23;20413;-82
2021/08/02 08:28:55;;;;;;;5.30;2.77;;;16.70;98.30;;;;;;5123801;23;20441;-82
2021/08/02 08:31:01;;;;;;;4.23;2.73;;;16.80;98.30;;;;;;5123396;23;20453;-82
2021/08/02 08:33:04;;;;;;;3.10;2.20;;;16.90;98.30;;;;;;5115570;23;20732;-83
2021/08/02 08:35:09;;;;;;;3.57;2.57;;;17.00;98.30;;;;;;5124351;23;20966;-83
2021/08/02 08:37:12;;;;;;;4.07;2.87;;;17.10;98.30;;;;;;5115943;23;20819;-82
2021/08/02 08:39:15;;;;;;;3.23;2.93;;;17.10;98.30;;;;;;5115596;23;20449;-82
2021/08/02 08:41:19;;;;;;;3.90;2.80;;;17.00;98.30;;;;;;5115588;23;20533;-83
2021/08/02 08:43:22;;;;;;;4.60;3.00;;;17.10;98.30;;;;;;5115576;23;20447;-82
2021/08/02 08:45:26;;;;;;;3.07;2.77;;;17.20;98.30;;;;;;5115528;23;20437;-83
2021/08/02 08:47:34;;;;;;;2.50;2.30;;;17.30;98.30;;;;;;5123857;23;20449;-82
2021/08/02 08:49:37;;;;;;;4.20;2.73;;;17.20;98.30;;;;;;5115568;23;20449;-82
2021/08/02 08:51:41;;;;;;;5.33;3.20;;;17.10;98.30;;;;;;5124053;23;20426;-82
2021/08/02 08:53:44;;;;;;;4.30;2.70;;;17.10;98.30;;;;;;5115372;23;20436;-82
2021/08/02 08:55:47;;;;;;;6.80;3.37;;;17.20;98.30;;;;;;5124078;23;20429;-82
2021/08/02 08:57:50;;;;;;;6.57;3.10;;;17.30;98.30;;;;;;5115478;23;20430;-83
2021/08/02 08:59:54;;;;;;;5.00;2.87;;;17.60;98.30;;;;;;5123965;23;20574;-82
2021/08/02 09:02:02;;;;;;;5.50;3.30;;;17.80;98.30;;;;;;5123569;23;20529;-82
2021/08/02 09:04:10;;;;;;;7.00;3.40;;;17.70;98.30;;;;;;5115902;23;20430;-83
2021/08/02 09:06:12;;;;;;;4.20;2.60;;;17.60;98.30;;;;;;5116562;23;20421;-82
2021/08/02 09:08:23;;;;;;;7.40;3.80;;;17.30;98.30;;;;;;5115287;23;20533;-82
2021/08/02 09:10:26;;;;;;;6.03;2.67;;;17.20;98.30;;;;;;5123394;23;20422;-82
2021/08/02 09:12:29;;;;;;;5.70;3.03;;;17.10;98.30;;;;;;5115865;23;20462;-83
2021/08/02 09:14:35;;;;;;;4.20;3.37;;;17.00;98.30;;;;;;5117844;23;20434;-82
2021/08/02 09:16:38;;;;;;;3.70;2.87;;;16.90;98.30;;;;;;5126229;23;20812;-82
2021/08/02 09:18:45;;;;;;;5.33;4.00;;;16.70;98.30;;;;;;5131116;23;20449;-82
2021/08/02 09:20:59;;;;;;;3.90;2.87;;;16.60;98.30;;;;;;5125335;23;20410;-82
2021/08/02 09:23:09;;;;;;;6.77;2.90;;;16.50;98.30;;;;;;5125455;23;20953;-82
2021/08/02 09:25:13;;;;;;;4.90;3.13;;;16.50;98.30;;;;;;5124829;23;20524;-82
2021/08/02 09:27:26;;;;;;;4.97;2.93;;;16.30;98.30;;;;;;5116749;23;20425;-82
2021/08/02 09:29:29;;;;;;;3.17;2.87;;;16.40;98.30;;;;;;5125147;23;20465;-82
2021/08/02 09:31:34;;;;;;;6.63;3.00;;;16.30;98.30;;;;;;5124694;23;20425;-82
2021/08/02 09:33:44;;;;;;;3.30;3.00;;;16.30;98.30;;;;;;5125222;23;20484;-82
2021/08/02 09:35:49;;;;;;;4.33;2.80;;;16.30;98.30;;;;;;5124958;23;20489;-82
2021/08/02 09:37:56;;;;;;;4.40;2.77;;;16.30;98.30;;;;;;5124884;23;20805;-82
2021/08/02 09:40:05;;;;;;;6.27;3.43;;;16.40;98.30;;;;;;5125119;23;20444;-83
2021/08/02 09:42:09;;;;;;;4.33;2.97;;;16.60;98.30;;;;;;5116392;23;20433;-83
2021/08/02 09:44:35;;;;;;;3.93;3.40;;;16.70;98.30;;;;;;5116863;23;20437;-82
2021/08/02 09:46:53;;;;;;;8.57;3.37;;;16.80;98.30;;;;;;5125018;23;20405;-83
2021/08/02 09:49:02;;;;;;;4.50;2.90;;;16.90;98.30;;;;;;5125388;23;20525;-83
2021/08/02 09:51:09;;;;;;;9.80;3.00;;;17.20;98.30;;;;;;5124538;23;20931;-82
2021/08/02 09:53:16;;;;;;;4.67;3.00;;;17.50;98.30;;;;;;5125104;23;20429;-82
2021/08/02 09:55:20;;;;;;;4.57;3.37;;;17.70;98.30;;;;;;5117020;23;20420;-83
2021/08/02 09:57:23;;;;;;;4.47;3.00;;;17.80;98.30;;;;;;5116538;23;20461;-83
2021/08/02 09:59:26;;;;;;;4.43;3.47;;;17.90;98.30;;;;;;5116479;23;20521;-83
2021/08/02 19:16:20;;;;;;;4.13;2.90;;;17.80;98.30;;;;;;4827412;24;20406;-86
2021/08/02 22:47:40;;;;;;;4.43;3.00;;;16.10;98.30;;;;;;5060684;23;20463;-83
2021/08/02 22:50:16;;;;;;;5.03;3.50;;;16.10;98.30;;;;;;5066853;23;20431;-83
2021/08/02 22:52:27;;;;;;;5.60;2.93;;;16.10;98.30;;;;;;5066469;23;20447;-83
